sensor_id;sensor_type;location;lat;lon;timestamp;pressure;altitude;pressure_sealevel;temperature
75658;BMP280;64255;49.892;17.884;2023-04-24T00:02:02;97777.00;;;15.49
75658;BMP280;64255;49.892;17.884;2023-04-24T00:04:48;97782.50;;;15.56
75658;BMP280;64255;49.892;17.884;2023-04-24T00:07:34;97776.81;;;15.60
75658;BMP280;64255;49.892;17.884;2023-04-24T00:10:21;97762.16;;;15.55
75658;BMP280;64255;49.892;17.884;2023-04-24T00:13:08;97769.22;;;15.45
75658;BMP280;64255;49.892;17.884;2023-04-24T00:15:55;97762.69;;;15.54
75658;BMP280;64255;49.892;17.884;2023-04-24T00:18:42;97763.53;;;15.49
75658;BMP280;64255;49.892;17.884;2023-04-24T00:21:28;97762.69;;;15.54
75658;BMP280;64255;49.892;17.884;2023-04-24T00:24:16;97753.66;;;15.38
75658;BMP280;64255;49.892;17.884;2023-04-24T00:27:02;97758.81;;;15.36
75658;BMP280;64255;49.892;17.884;2023-04-24T00:29:49;97759.75;;;15.38
75658;BMP280;64255;49.892;17.884;2023-04-24T00:32:36;97762.81;;;15.16
75658;BMP280;64255;49.892;17.884;2023-04-24T00:35:22;97757.44;;;15.16
75658;BMP280;64255;49.892;17.884;2023-04-24T00:38:08;97753.97;;;15.02
75658;BMP280;64255;49.892;17.884;2023-04-24T00:40:55;97756.16;;;15.03
75658;BMP280;64255;49.892;17.884;2023-04-24T00:43:42;97737.81;;;15.02
75658;BMP280;64255;49.892;17.884;2023-04-24T00:46:29;97738.50;;;15.02
75658;BMP280;64255;49.892;17.884;2023-04-24T00:49:16;97738.25;;;15.06
75658;BMP280;64255;49.892;17.884;2023-04-24T00:52:03;97740.84;;;15.12
75658;BMP280;64255;49.892;17.884;2023-04-24T00:54:49;97731.31;;;15.11
75658;BMP280;64255;49.892;17.884;2023-04-24T00:57:37;97724.28;;;14.88
75658;BMP280;64255;49.892;17.884;2023-04-24T01:00:24;97737.50;;;15.05
75658;BMP280;64255;49.892;17.884;2023-04-24T01:03:11;97725.75;;;15.35
75658;BMP280;64255;49.892;17.884;2023-04-24T01:05:59;97726.13;;;15.13
75658;BMP280;64255;49.892;17.884;2023-04-24T01:08:47;97733.25;;;15.10
75658;BMP280;64255;49.892;17.884;2023-04-24T01:11:34;97727.47;;;15.06
75658;BMP280;64255;49.892;17.884;2023-04-24T01:14:21;97726.97;;;15.21
75658;BMP280;64255;49.892;17.884;2023-04-24T01:17:08;97733.91;;;15.16
75658;BMP280;64255;49.892;17.884;2023-04-24T01:19:55;97721.50;;;15.40
75658;BMP280;64255;49.892;17.884;2023-04-24T01:22:42;97724.59;;;15.31
75658;BMP280;64255;49.892;17.884;2023-04-24T01:25:30;97723.34;;;15.45
75658;BMP280;64255;49.892;17.884;2023-04-24T01:28:17;97717.25;;;15.44
75658;BMP280;64255;49.892;17.884;2023-04-24T01:31:03;97720.63;;;15.32
75658;BMP280;64255;49.892;17.884;2023-04-24T01:33:51;97716.19;;;15.61
75658;BMP280;64255;49.892;17.884;2023-04-24T01:36:38;97718.19;;;15.47
75658;BMP280;64255;49.892;17.884;2023-04-24T01:39:25;97717.25;;;15.44
75658;BMP280;64255;49.892;17.884;2023-04-24T01:42:13;97721.03;;;15.09
75658;BMP280;64255;49.892;17.884;2023-04-24T01:45:00;97718.38;;;15.36
75658;BMP280;64255;49.892;17.884;2023-04-24T01:47:47;97714.09;;;15.27
75658;BMP280;64255;49.892;17.884;2023-04-24T01:50:34;97715.59;;;15.41
75658;BMP280;64255;49.892;17.884;2023-04-24T01:53:20;97715.59;;;15.41
75658;BMP280;64255;49.892;17.884;2023-04-24T01:56:07;97714.84;;;15.27
75658;BMP280;64255;49.892;17.884;2023-04-24T01:58:55;97707.25;;;15.26
75658;BMP280;64255;49.892;17.884;2023-04-24T02:01:42;97720.03;;;15.25
75658;BMP280;64255;49.892;17.884;2023-04-24T02:04:29;97706.53;;;15.25
75658;BMP280;64255;49.892;17.884;2023-04-24T02:07:16;97708.59;;;15.19
75658;BMP280;64255;49.892;17.884;2023-04-24T02:10:03;97710.50;;;15.38
75658;BMP280;64255;49.892;17.884;2023-04-24T02:12:50;97699.19;;;15.66
75658;BMP280;64255;49.892;17.884;2023-04-24T02:15:37;97698.25;;;15.37
75658;BMP280;64255;49.892;17.884;2023-04-24T02:18:23;97692.94;;;15.04
75658;BMP280;64255;49.892;17.884;2023-04-24T02:21:10;97695.56;;;15.23
75658;BMP280;64255;49.892;17.884;2023-04-24T02:23:57;97697.72;;;15.38
75658;BMP280;64255;49.892;17.884;2023-04-24T02:26:44;97687.69;;;15.39
75658;BMP280;64255;49.892;17.884;2023-04-24T02:29:30;97685.59;;;15.32
75658;BMP280;64255;49.892;17.884;2023-04-24T02:32:17;97685.72;;;15.39
75658;BMP280;64255;49.892;17.884;2023-04-24T02:35:04;97684.97;;;15.25
75658;BMP280;64255;49.892;17.884;2023-04-24T02:37:51;97672.22;;;15.13
75658;BMP280;64255;49.892;17.884;2023-04-24T02:40:37;97679.38;;;15.37
75658;BMP280;64255;49.892;17.884;2023-04-24T02:43:23;97671.41;;;15.44
75658;BMP280;64255;49.892;17.884;2023-04-24T02:46:10;97673.25;;;15.36
75658;BMP280;64255;49.892;17.884;2023-04-24T02:48:56;97670.56;;;15.23
75658;BMP280;64255;49.892;17.884;2023-04-24T02:51:43;97669.31;;;15.24
75658;BMP280;64255;49.892;17.884;2023-04-24T02:54:29;97675.84;;;15.15
75658;BMP280;64255;49.892;17.884;2023-04-24T02:57:16;97667.25;;;15.17
75658;BMP280;64255;49.892;17.884;2023-04-24T03:00:03;97667.00;;;15.15
75658;BMP280;64255;49.892;17.884;2023-04-24T03:02:50;97671.09;;;14.89
75658;BMP280;64255;49.892;17.884;2023-04-24T03:05:36;97664.84;;;15.00
75658;BMP280;64255;49.892;17.884;2023-04-24T03:08:23;97657.81;;;14.78
75658;BMP280;64255;49.892;17.884;2023-04-24T03:11:10;97655.97;;;14.72
75658;BMP280;64255;49.892;17.884;2023-04-24T03:13:56;97649.16;;;14.85
75658;BMP280;64255;49.892;17.884;2023-04-24T03:16:43;97658.13;;;14.41
75658;BMP280;64255;49.892;17.884;2023-04-24T03:19:29;97662.41;;;14.83
75658;BMP280;64255;49.892;17.884;2023-04-24T03:22:16;97667.53;;;14.67
75658;BMP280;64255;49.892;17.884;2023-04-24T03:25:03;97663.22;;;14.64
75658;BMP280;64255;49.892;17.884;2023-04-24T03:27:50;97661.03;;;14.44
75658;BMP280;64255;49.892;17.884;2023-04-24T03:30:36;97653.84;;;14.52
75658;BMP280;64255;49.892;17.884;2023-04-24T03:33:23;97659.88;;;14.39
75658;BMP280;64255;49.892;17.884;2023-04-24T03:36:09;97669.94;;;14.38
75658;BMP280;64255;49.892;17.884;2023-04-24T03:38:55;97666.69;;;14.40
75658;BMP280;64255;49.892;17.884;2023-04-24T03:41:42;97671.41;;;14.39
75658;BMP280;64255;49.892;17.884;2023-04-24T03:44:28;97667.19;;;14.25
75658;BMP280;64255;49.892;17.884;2023-04-24T03:47:15;97670.44;;;14.18
75658;BMP280;64255;49.892;17.884;2023-04-24T03:50:01;97667.09;;;14.31
75658;BMP280;64255;49.892;17.884;2023-04-24T03:52:48;97659.75;;;14.31
75658;BMP280;64255;49.892;17.884;2023-04-24T03:55:34;97660.50;;;14.13
75658;BMP280;64255;49.892;17.884;2023-04-24T03:58:21;97676.47;;;14.43
75658;BMP280;64255;49.892;17.884;2023-04-24T04:01:07;97666.78;;;14.34
75658;BMP280;64255;49.892;17.884;2023-04-24T04:03:54;97666.69;;;14.40
75658;BMP280;64255;49.892;17.884;2023-04-24T04:06:40;97654.59;;;14.33
75658;BMP280;64255;49.892;17.884;2023-04-24T04:09:27;97670.56;;;14.45
75658;BMP280;64255;49.892;17.884;2023-04-24T04:12:13;97660.94;;;14.17
75658;BMP280;64255;49.892;17.884;2023-04-24T04:15:00;97661.47;;;14.29
75658;BMP280;64255;49.892;17.884;2023-04-24T04:17:47;97657.97;;;14.53
75658;BMP280;64255;49.892;17.884;2023-04-24T04:20:33;97670.31;;;14.10
75658;BMP280;64255;49.892;17.884;2023-04-24T04:23:19;97672.41;;;13.98
75658;BMP280;64255;49.892;17.884;2023-04-24T04:26:06;97665.41;;;14.08
75658;BMP280;64255;49.892;17.884;2023-04-24T04:28:53;97665.63;;;14.11
75658;BMP280;64255;49.892;17.884;2023-04-24T04:31:39;97670.06;;;13.70
75658;BMP280;64255;49.892;17.884;2023-04-24T04:34:26;97673.56;;;14.03
75658;BMP280;64255;49.892;17.884;2023-04-24T04:37:12;97672.16;;;14.34
75658;BMP280;64255;49.892;17.884;2023-04-24T04:40:00;97665.03;;;14.18
75658;BMP280;64255;49.892;17.884;2023-04-24T04:42:46;97657.19;;;14.01
75658;BMP280;64255;49.892;17.884;2023-04-24T04:45:33;97654.50;;;13.63
75658;BMP280;64255;49.892;17.884;2023-04-24T04:48:19;97654.50;;;14.01
75658;BMP280;64255;49.892;17.884;2023-04-24T04:51:06;97652.41;;;13.94
75658;BMP280;64255;49.892;17.884;2023-04-24T04:53:53;97660.56;;;14.26
75658;BMP280;64255;49.892;17.884;2023-04-24T04:56:39;97660.03;;;14.08
75658;BMP280;64255;49.892;17.884;2023-04-24T04:59:26;97659.81;;;13.87
75658;BMP280;64255;49.892;17.884;2023-04-24T05:02:13;97656.09;;;14.10
75658;BMP280;64255;49.892;17.884;2023-04-24T05:04:59;97662.94;;;14.30
75658;BMP280;64255;49.892;17.884;2023-04-24T05:07:46;97659.50;;;14.48
75658;BMP280;64255;49.892;17.884;2023-04-24T05:10:32;97655.53;;;14.68
75658;BMP280;64255;49.892;17.884;2023-04-24T05:13:19;97654.72;;;14.73
75658;BMP280;64255;49.892;17.884;2023-04-24T05:16:06;97656.34;;;15.09
75658;BMP280;64255;49.892;17.884;2023-04-24T05:18:52;97663.09;;;15.42
75658;BMP280;64255;49.892;17.884;2023-04-24T05:21:39;97665.69;;;15.48
75658;BMP280;64255;49.892;17.884;2023-04-24T05:24:26;97661.44;;;15.53
75658;BMP280;64255;49.892;17.884;2023-04-24T05:27:12;97667.81;;;16.03
75658;BMP280;64255;49.892;17.884;2023-04-24T05:29:59;97673.25;;;16.24
75658;BMP280;64255;49.892;17.884;2023-04-24T05:32:45;97672.75;;;15.99
75658;BMP280;64255;49.892;17.884;2023-04-24T05:35:32;97675.66;;;16.15
75658;BMP280;64255;49.892;17.884;2023-04-24T05:38:19;97671.44;;;16.27
75658;BMP280;64255;49.892;17.884;2023-04-24T05:41:05;97666.72;;;16.20
75658;BMP280;64255;49.892;17.884;2023-04-24T05:43:52;97662.69;;;16.13
75658;BMP280;64255;49.892;17.884;2023-04-24T05:46:38;97661.34;;;16.27
75658;BMP280;64255;49.892;17.884;2023-04-24T05:49:24;97666.28;;;16.16
75658;BMP280;64255;49.892;17.884;2023-04-24T05:52:11;97670.81;;;16.21
75658;BMP280;64255;49.892;17.884;2023-04-24T05:54:57;97674.03;;;16.33
75658;BMP280;64255;49.892;17.884;2023-04-24T05:57:44;97675.38;;;16.26
75658;BMP280;64255;49.892;17.884;2023-04-24T06:00:31;97667.34;;;16.47
75658;BMP280;64255;49.892;17.884;2023-04-24T06:03:18;97663.94;;;16.54
75658;BMP280;64255;49.892;17.884;2023-04-24T06:06:05;97666.28;;;16.50
75658;BMP280;64255;49.892;17.884;2023-04-24T06:08:52;97669.16;;;16.52
75658;BMP280;64255;49.892;17.884;2023-04-24T06:11:38;97673.44;;;16.47
75658;BMP280;64255;49.892;17.884;2023-04-24T06:14:25;97666.00;;;16.61
75658;BMP280;64255;49.892;17.884;2023-04-24T06:17:12;97656.78;;;16.57
75658;BMP280;64255;49.892;17.884;2023-04-24T06:19:59;97652.91;;;16.44
75658;BMP280;64255;49.892;17.884;2023-04-24T06:22:45;97651.69;;;16.53
75658;BMP280;64255;49.892;17.884;2023-04-24T06:25:32;97655.78;;;16.68
75658;BMP280;64255;49.892;17.884;2023-04-24T06:28:19;97657.81;;;16.75
75658;BMP280;64255;49.892;17.884;2023-04-24T06:31:05;97655.38;;;16.85
75658;BMP280;64255;49.892;17.884;2023-04-24T06:33:52;97657.81;;;16.75
75658;BMP280;64255;49.892;17.884;2023-04-24T06:36:38;97659.31;;;17.05
75658;BMP280;64255;49.892;17.884;2023-04-24T06:39:25;97657.41;;;17.21
75658;BMP280;64255;49.892;17.884;2023-04-24T06:42:11;97656.28;;;17.45
75658;BMP280;64255;49.892;17.884;2023-04-24T06:44:57;97657.09;;;17.32
75658;BMP280;64255;49.892;17.884;2023-04-24T06:47:44;97662.28;;;16.93
75658;BMP280;64255;49.892;17.884;2023-04-24T06:50:30;97659.78;;;16.95
75658;BMP280;64255;49.892;17.884;2023-04-24T06:53:17;97655.78;;;16.89
75658;BMP280;64255;49.892;17.884;2023-04-24T06:56:04;97654.66;;;16.84
75658;BMP280;64255;49.892;17.884;2023-04-24T06:58:51;97651.63;;;16.88
75658;BMP280;64255;49.892;17.884;2023-04-24T07:01:37;97646.41;;;16.90
75658;BMP280;64255;49.892;17.884;2023-04-24T07:04:24;97647.28;;;16.85
75658;BMP280;64255;49.892;17.884;2023-04-24T07:07:12;97653.13;;;16.75
75658;BMP280;64255;49.892;17.884;2023-04-24T07:09:59;97638.88;;;16.67
75658;BMP280;64255;49.892;17.884;2023-04-24T07:12:45;97651.28;;;16.70
75658;BMP280;64255;49.892;17.884;2023-04-24T07:15:32;97632.84;;;16.61
75658;BMP280;64255;49.892;17.884;2023-04-24T07:18:18;97641.75;;;16.48
75658;BMP280;64255;49.892;17.884;2023-04-24T07:21:05;97635.44;;;16.45
75658;BMP280;64255;49.892;17.884;2023-04-24T07:23:52;97635.25;;;16.43
75658;BMP280;64255;49.892;17.884;2023-04-24T07:26:39;97632.84;;;16.40
75658;BMP280;64255;49.892;17.884;2023-04-24T07:29:26;97633.94;;;16.37
75658;BMP280;64255;49.892;17.884;2023-04-24T07:32:12;97645.13;;;16.41
75658;BMP280;64255;49.892;17.884;2023-04-24T07:34:59;97636.09;;;16.59
75658;BMP280;64255;49.892;17.884;2023-04-24T07:37:45;97638.72;;;16.52
75658;BMP280;64255;49.892;17.884;2023-04-24T07:40:31;97638.53;;;16.50
75658;BMP280;64255;49.892;17.884;2023-04-24T07:43:20;97640.81;;;16.45
75658;BMP280;64255;49.892;17.884;2023-04-24T07:46:10;97641.69;;;16.40
75658;BMP280;64255;49.892;17.884;2023-04-24T07:48:57;97631.88;;;16.08
75658;BMP280;64255;49.892;17.884;2023-04-24T07:51:44;97647.13;;;16.06
75658;BMP280;64255;49.892;17.884;2023-04-24T07:54:31;97643.31;;;15.88
75658;BMP280;64255;49.892;17.884;2023-04-24T07:57:17;97647.59;;;15.83
75658;BMP280;64255;49.892;17.884;2023-04-24T08:00:05;97657.16;;;15.71
75658;BMP280;64255;49.892;17.884;2023-04-24T08:02:51;97654.44;;;15.84
75658;BMP280;64255;49.892;17.884;2023-04-24T08:05:38;97654.34;;;15.76
75658;BMP280;64255;49.892;17.884;2023-04-24T08:08:25;97650.78;;;15.95
75658;BMP280;64255;49.892;17.884;2023-04-24T08:11:11;97641.56;;;15.90
75658;BMP280;64255;49.892;17.884;2023-04-24T08:13:58;97654.34;;;16.24
75658;BMP280;64255;49.892;17.884;2023-04-24T08:16:45;97649.34;;;16.15
75658;BMP280;64255;49.892;17.884;2023-04-24T08:19:31;97648.38;;;16.26
75658;BMP280;64255;49.892;17.884;2023-04-24T08:22:18;97645.84;;;16.20
75658;BMP280;64255;49.892;17.884;2023-04-24T08:25:04;97648.84;;;16.17
75658;BMP280;64255;49.892;17.884;2023-04-24T08:27:51;97646.16;;;16.38
75658;BMP280;64255;49.892;17.884;2023-04-24T08:30:38;97647.81;;;16.20
75658;BMP280;64255;49.892;17.884;2023-04-24T08:33:24;97662.25;;;16.43
75658;BMP280;64255;49.892;17.884;2023-04-24T08:36:11;97658.16;;;16.29
75658;BMP280;64255;49.892;17.884;2023-04-24T08:38:57;97657.28;;;16.34
75658;BMP280;64255;49.892;17.884;2023-04-24T08:41:44;97655.38;;;16.21
75658;BMP280;64255;49.892;17.884;2023-04-24T08:44:32;97657.03;;;16.24
75658;BMP280;64255;49.892;17.884;2023-04-24T08:47:20;97654.50;;;16.05
75658;BMP280;64255;49.892;17.884;2023-04-24T08:50:09;97649.56;;;15.96
75658;BMP280;64255;49.892;17.884;2023-04-24T08:52:56;97658.78;;;16.01
75658;BMP280;64255;49.892;17.884;2023-04-24T08:55:47;97653.78;;;15.57
75658;BMP280;64255;49.892;17.884;2023-04-24T08:58:34;97660.19;;;15.81
75658;BMP280;64255;49.892;17.884;2023-04-24T09:01:25;97650.31;;;15.70
75658;BMP280;64255;49.892;17.884;2023-04-24T09:04:12;97650.13;;;15.14
75658;BMP280;64255;49.892;17.884;2023-04-24T09:07:01;97645.56;;;15.22
75658;BMP280;64255;49.892;17.884;2023-04-24T09:09:48;97648.31;;;14.90
75658;BMP280;64255;49.892;17.884;2023-04-24T09:12:36;97644.84;;;15.08
75658;BMP280;64255;49.892;17.884;2023-04-24T09:15:23;97650.72;;;15.07
75658;BMP280;64255;49.892;17.884;2023-04-24T09:18:10;97649.81;;;15.04
75658;BMP280;64255;49.892;17.884;2023-04-24T09:21:02;97659.13;;;15.03
75658;BMP280;64255;49.892;17.884;2023-04-24T09:24:07;97647.75;;;15.24
75658;BMP280;64255;49.892;17.884;2023-04-24T09:26:58;97653.88;;;15.51
75658;BMP280;64255;49.892;17.884;2023-04-24T09:29:55;97655.94;;;15.45
75658;BMP280;64255;49.892;17.884;2023-04-24T09:32:42;97660.28;;;15.75
75658;BMP280;64255;49.892;17.884;2023-04-24T09:35:28;97650.91;;;15.89
75658;BMP280;64255;49.892;17.884;2023-04-24T09:38:15;97651.66;;;15.50
75658;BMP280;64255;49.892;17.884;2023-04-24T09:41:08;97639.09;;;15.79
75658;BMP280;64255;49.892;17.884;2023-04-24T09:43:56;97643.47;;;15.69
75658;BMP280;64255;49.892;17.884;2023-04-24T09:46:45;97638.69;;;15.75
75658;BMP280;64255;49.892;17.884;2023-04-24T09:49:31;97642.41;;;15.85
75658;BMP280;64255;49.892;17.884;2023-04-24T09:52:18;97647.59;;;15.83
75658;BMP280;64255;49.892;17.884;2023-04-24T09:55:19;97647.69;;;15.91
75658;BMP280;64255;49.892;17.884;2023-04-24T09:58:08;97639.97;;;16.08
75658;BMP280;64255;49.892;17.884;2023-04-24T10:00:56;97636.94;;;16.33
75658;BMP280;64255;49.892;17.884;2023-04-24T10:03:42;97644.53;;;16.56
75658;BMP280;64255;49.892;17.884;2023-04-24T10:06:35;97644.59;;;16.92
75658;BMP280;64255;49.892;17.884;2023-04-24T10:09:25;97636.59;;;17.08
75658;BMP280;64255;49.892;17.884;2023-04-24T10:12:13;97628.75;;;16.89
75658;BMP280;64255;49.892;17.884;2023-04-24T10:15:01;97637.44;;;16.10
75658;BMP280;64255;49.892;17.884;2023-04-24T10:17:50;97637.03;;;16.20
75658;BMP280;64255;49.892;17.884;2023-04-24T10:20:39;97632.50;;;16.01
75658;BMP280;64255;49.892;17.884;2023-04-24T10:23:26;97637.38;;;16.03
75658;BMP280;64255;49.892;17.884;2023-04-24T10:26:13;97631.81;;;15.87
75658;BMP280;64255;49.892;17.884;2023-04-24T10:29:01;97628.81;;;15.77
75658;BMP280;64255;49.892;17.884;2023-04-24T10:31:48;97641.69;;;15.85
75658;BMP280;64255;49.892;17.884;2023-04-24T10:34:34;97638.31;;;15.57
75658;BMP280;64255;49.892;17.884;2023-04-24T10:37:21;97633.59;;;15.71
75658;BMP280;64255;49.892;17.884;2023-04-24T10:40:09;97638.25;;;15.71
75658;BMP280;64255;49.892;17.884;2023-04-24T10:42:56;97640.38;;;15.38
75658;BMP280;64255;49.892;17.884;2023-04-24T10:46:02;97632.41;;;15.46
75658;BMP280;64255;49.892;17.884;2023-04-24T10:48:55;97638.84;;;15.29
75658;BMP280;64255;49.892;17.884;2023-04-24T10:51:51;97636.16;;;15.29
75658;BMP280;64255;49.892;17.884;2023-04-24T10:54:46;97638.13;;;15.29
75658;BMP280;64255;49.892;17.884;2023-04-24T10:57:33;97641.00;;;15.44
75658;BMP280;64255;49.892;17.884;2023-04-24T11:00:21;97647.94;;;15.13
75658;BMP280;64255;49.892;17.884;2023-04-24T11:03:29;97643.38;;;14.94
75658;BMP280;64255;49.892;17.884;2023-04-24T11:06:16;97642.13;;;14.95
75658;BMP280;64255;49.892;17.884;2023-04-24T11:09:15;97644.28;;;14.97
75658;BMP280;64255;49.892;17.884;2023-04-24T11:12:08;97648.38;;;14.57
75658;BMP280;64255;49.892;17.884;2023-04-24T11:15:00;97636.81;;;14.76
75658;BMP280;64255;49.892;17.884;2023-04-24T11:17:47;97652.25;;;14.75
75658;BMP280;64255;49.892;17.884;2023-04-24T11:20:33;97649.63;;;14.83
75658;BMP280;64255;49.892;17.884;2023-04-24T11:23:21;97642.75;;;14.88
75658;BMP280;64255;49.892;17.884;2023-04-24T11:26:37;97652.19;;;14.95
75658;BMP280;64255;49.892;17.884;2023-04-24T11:32:43;97647.94;;;14.99
75658;BMP280;64255;49.892;17.884;2023-04-24T11:35:29;97658.78;;;14.80
75658;BMP280;64255;49.892;17.884;2023-04-24T11:38:21;97656.31;;;14.82
75658;BMP280;64255;49.892;17.884;2023-04-24T11:41:08;97656.47;;;15.17
75658;BMP280;64255;49.892;17.884;2023-04-24T11:43:56;97662.84;;;15.14
75658;BMP280;64255;49.892;17.884;2023-04-24T11:46:43;97659.75;;;14.96
75658;BMP280;64255;49.892;17.884;2023-04-24T11:49:29;97655.28;;;14.53
75658;BMP280;64255;49.892;17.884;2023-04-24T11:52:16;97655.97;;;14.72
75658;BMP280;64255;49.892;17.884;2023-04-24T11:55:03;97654.38;;;14.64
75658;BMP280;64255;49.892;17.884;2023-04-24T11:57:53;97649.09;;;14.58
75658;BMP280;64255;49.892;17.884;2023-04-24T12:00:39;97645.81;;;14.79
75658;BMP280;64255;49.892;17.884;2023-04-24T12:03:26;97644.97;;;14.70
75658;BMP280;64255;49.892;17.884;2023-04-24T12:06:12;97649.38;;;14.54
75658;BMP280;64255;49.892;17.884;2023-04-24T12:08:59;97648.81;;;14.75
75658;BMP280;64255;49.892;17.884;2023-04-24T12:11:56;97650.66;;;14.99
75658;BMP280;64255;49.892;17.884;2023-04-24T12:14:58;97645.66;;;15.17
75658;BMP280;64255;49.892;17.884;2023-04-24T12:17:45;97647.97;;;14.67
75658;BMP280;64255;49.892;17.884;2023-04-24T12:20:33;97632.78;;;14.50
75658;BMP280;64255;49.892;17.884;2023-04-24T12:23:35;97636.53;;;14.28
75658;BMP280;64255;49.892;17.884;2023-04-24T12:26:22;97640.88;;;14.31
75658;BMP280;64255;49.892;17.884;2023-04-24T12:29:08;97636.75;;;14.30
75658;BMP280;64255;49.892;17.884;2023-04-24T12:31:54;97624.22;;;14.65
75658;BMP280;64255;49.892;17.884;2023-04-24T12:34:43;97631.50;;;14.70
75658;BMP280;64255;49.892;17.884;2023-04-24T12:37:34;97627.56;;;14.71
75658;BMP280;64255;49.892;17.884;2023-04-24T12:40:21;97636.25;;;14.78
75658;BMP280;64255;49.892;17.884;2023-04-24T12:43:19;97650.34;;;14.70
75658;BMP280;64255;49.892;17.884;2023-04-24T12:46:06;97641.16;;;14.79
75658;BMP280;64255;49.892;17.884;2023-04-24T12:48:52;97631.72;;;14.72
75658;BMP280;64255;49.892;17.884;2023-04-24T12:51:39;97637.63;;;14.84
75658;BMP280;64255;49.892;17.884;2023-04-24T12:54:25;97633.13;;;15.06
75658;BMP280;64255;49.892;17.884;2023-04-24T12:57:12;97635.69;;;14.85
75658;BMP280;64255;49.892;17.884;2023-04-24T12:59:59;97635.22;;;14.67
75658;BMP280;64255;49.892;17.884;2023-04-24T13:02:45;97633.16;;;14.73
75658;BMP280;64255;49.892;17.884;2023-04-24T13:05:32;97620.56;;;14.82
75658;BMP280;64255;49.892;17.884;2023-04-24T13:08:18;97612.47;;;14.82
75658;BMP280;64255;49.892;17.884;2023-04-24T13:11:05;97624.53;;;15.21
75658;BMP280;64255;49.892;17.884;2023-04-24T13:13:51;97619.56;;;15.12
75658;BMP280;64255;49.892;17.884;2023-04-24T13:16:38;97620.34;;;14.93
75658;BMP280;64255;49.892;17.884;2023-04-24T13:19:25;97617.84;;;14.95
75658;BMP280;64255;49.892;17.884;2023-04-24T13:22:13;97621.97;;;14.69
75658;BMP280;64255;49.892;17.884;2023-04-24T13:24:59;97619.00;;;14.86
75658;BMP280;64255;49.892;17.884;2023-04-24T13:27:46;97612.03;;;14.78
75658;BMP280;64255;49.892;17.884;2023-04-24T13:30:32;97613.50;;;14.46
75658;BMP280;64255;49.892;17.884;2023-04-24T13:33:19;97607.88;;;14.77
75658;BMP280;64255;49.892;17.884;2023-04-24T13:36:06;97608.81;;;14.33
75658;BMP280;64255;49.892;17.884;2023-04-24T13:38:52;97616.25;;;14.27
75658;BMP280;64255;49.892;17.884;2023-04-24T13:41:39;97608.75;;;14.52
75658;BMP280;64255;49.892;17.884;2023-04-24T13:44:26;97605.06;;;14.55
75658;BMP280;64255;49.892;17.884;2023-04-24T13:47:12;97607.22;;;14.57
75658;BMP280;64255;49.892;17.884;2023-04-24T13:49:59;97595.38;;;14.79
75658;BMP280;64255;49.892;17.884;2023-04-24T13:52:45;97600.00;;;14.79
75658;BMP280;64255;49.892;17.884;2023-04-24T13:55:32;97603.75;;;15.02
75658;BMP280;64255;49.892;17.884;2023-04-24T13:58:18;97599.22;;;14.97
75658;BMP280;64255;49.892;17.884;2023-04-24T14:01:05;97597.53;;;14.81
75658;BMP280;64255;49.892;17.884;2023-04-24T14:03:52;97594.66;;;14.46
75658;BMP280;64255;49.892;17.884;2023-04-24T14:06:39;97598.31;;;14.49
75658;BMP280;64255;49.892;17.884;2023-04-24T14:09:25;97609.13;;;14.11
75658;BMP280;64255;49.892;17.884;2023-04-24T14:12:12;97593.28;;;14.26
75658;BMP280;64255;49.892;17.884;2023-04-24T14:14:59;97608.00;;;14.38
75658;BMP280;64255;49.892;17.884;2023-04-24T14:17:45;97604.19;;;13.96
75658;BMP280;64255;49.892;17.884;2023-04-24T14:20:32;97609.44;;;13.88
75658;BMP280;64255;49.892;17.884;2023-04-24T14:23:18;97601.41;;;14.39
75658;BMP280;64255;49.892;17.884;2023-04-24T14:26:05;97605.84;;;14.18
75658;BMP280;64255;49.892;17.884;2023-04-24T14:28:51;97601.13;;;14.24
75658;BMP280;64255;49.892;17.884;2023-04-24T14:31:38;97608.53;;;14.18
75658;BMP280;64255;49.892;17.884;2023-04-24T14:34:24;97605.66;;;14.29
75658;BMP280;64255;49.892;17.884;2023-04-24T14:37:11;97594.72;;;14.27
75658;BMP280;64255;49.892;17.884;2023-04-24T14:39:57;97595.56;;;14.35
75658;BMP280;64255;49.892;17.884;2023-04-24T14:42:44;97593.13;;;14.18
75658;BMP280;64255;49.892;17.884;2023-04-24T14:45:31;97590.16;;;14.35
75658;BMP280;64255;49.892;17.884;2023-04-24T14:48:17;97582.66;;;14.61
75658;BMP280;64255;49.892;17.884;2023-04-24T14:51:04;97579.69;;;14.51
75658;BMP280;64255;49.892;17.884;2023-04-24T14:53:51;97584.84;;;14.49
75658;BMP280;64255;49.892;17.884;2023-04-24T14:56:37;97596.22;;;14.55
75658;BMP280;64255;49.892;17.884;2023-04-24T14:59:24;97590.56;;;14.58
75658;BMP280;64255;49.892;17.884;2023-04-24T15:02:10;97591.69;;;14.50
75658;BMP280;64255;49.892;17.884;2023-04-24T15:04:57;97583.38;;;14.48
75658;BMP280;64255;49.892;17.884;2023-04-24T15:07:43;97575.06;;;14.32
75658;BMP280;64255;49.892;17.884;2023-04-24T15:10:30;97586.28;;;14.17
75658;BMP280;64255;49.892;17.884;2023-04-24T15:13:16;97584.09;;;14.48
75658;BMP280;64255;49.892;17.884;2023-04-24T15:16:03;97588.09;;;14.28
75658;BMP280;64255;49.892;17.884;2023-04-24T15:18:49;97593.34;;;14.20
75658;BMP280;64255;49.892;17.884;2023-04-24T15:21:37;97585.28;;;14.20
75658;BMP280;64255;49.892;17.884;2023-04-24T15:24:23;97581.97;;;14.28
75658;BMP280;64255;49.892;17.884;2023-04-24T15:27:11;97588.81;;;14.29
75658;BMP280;64255;49.892;17.884;2023-04-24T15:29:57;97587.75;;;14.18
75658;BMP280;64255;49.892;17.884;2023-04-24T15:32:44;97584.97;;;14.05
75658;BMP280;64255;49.892;17.884;2023-04-24T15:35:30;97584.31;;;14.18
75658;BMP280;64255;49.892;17.884;2023-04-24T15:38:17;97585.63;;;14.11
75658;BMP280;64255;49.892;17.884;2023-04-24T15:41:04;97594.53;;;14.06
75658;BMP280;64255;49.892;17.884;2023-04-24T15:43:51;97594.81;;;14.02
75658;BMP280;64255;49.892;17.884;2023-04-24T15:46:37;97592.81;;;14.03
75658;BMP280;64255;49.892;17.884;2023-04-24T15:49:25;97588.34;;;13.73
75658;BMP280;64255;49.892;17.884;2023-04-24T15:52:11;97590.94;;;14.17
75658;BMP280;64255;49.892;17.884;2023-04-24T15:54:58;97592.69;;;14.47